sensor_id;sensor_type;location;lat;lon;timestamp;P1;durP1;ratioP1;P2;durP2;ratioP2
13475;SDS011;6810;63.824;20.288;2023-08-06T00:01:23;1.57;;;1.00;;
13475;SDS011;6810;63.824;20.288;2023-08-06T00:04:10;3.30;;;1.30;;
13475;SDS011;6810;63.824;20.288;2023-08-06T00:06:57;2.40;;;1.30;;
13475;SDS011;6810;63.824;20.288;2023-08-06T00:09:44;2.73;;;1.10;;
13475;SDS011;6810;63.824;20.288;2023-08-06T00:12:31;1.10;;;1.00;;
13475;SDS011;6810;63.824;20.288;2023-08-06T00:15:18;1.90;;;1.10;;
13475;SDS011;6810;63.824;20.288;2023-08-06T00:18:05;2.97;;;1.13;;
13475;SDS011;6810;63.824;20.288;2023-08-06T00:20:52;1.60;;;1.17;;
13475;SDS011;6810;63.824;20.288;2023-08-06T00:23:40;1.23;;;0.97;;
13475;SDS011;6810;63.824;20.288;2023-08-06T00:26:28;2.40;;;1.13;;
13475;SDS011;6810;63.824;20.288;2023-08-06T00:29:15;1.83;;;1.10;;
13475;SDS011;6810;63.824;20.288;2023-08-06T00:32:02;3.03;;;1.30;;
13475;SDS011;6810;63.824;20.288;2023-08-06T00:34:49;2.23;;;1.13;;
13475;SDS011;6810;63.824;20.288;2023-08-06T00:37:36;1.20;;;1.10;;
13475;SDS011;6810;63.824;20.288;2023-08-06T00:40:23;1.87;;;1.20;;
13475;SDS011;6810;63.824;20.288;2023-08-06T00:43:10;2.50;;;1.30;;
13475;SDS011;6810;63.824;20.288;2023-08-06T00:45:57;1.53;;;1.33;;
13475;SDS011;6810;63.824;20.288;2023-08-06T00:48:45;4.77;;;1.40;;
13475;SDS011;6810;63.824;20.288;2023-08-06T00:51:33;2.00;;;1.00;;
13475;SDS011;6810;63.824;20.288;2023-08-06T00:54:21;1.10;;;1.00;;
13475;SDS011;6810;63.824;20.288;2023-08-06T00:57:10;3.73;;;1.20;;
13475;SDS011;6810;63.824;20.288;2023-08-06T00:59:58;1.67;;;1.10;;
13475;SDS011;6810;63.824;20.288;2023-08-06T01:02:26;2.00;;;1.30;;
13475;SDS011;6810;63.824;20.288;2023-08-06T01:04:53;3.10;;;0.90;;
13475;SDS011;6810;63.824;20.288;2023-08-06T01:12:56;2.27;;;1.10;;
13475;SDS011;6810;63.824;20.288;2023-08-06T01:15:38;2.87;;;1.00;;
13475;SDS011;6810;63.824;20.288;2023-08-06T01:18:14;1.23;;;1.00;;
13475;SDS011;6810;63.824;20.288;2023-08-06T01:20:42;2.20;;;1.20;;
13475;SDS011;6810;63.824;20.288;2023-08-06T01:23:09;1.93;;;1.10;;
13475;SDS011;6810;63.824;20.288;2023-08-06T01:25:39;1.37;;;0.90;;
13475;SDS011;6810;63.824;20.288;2023-08-06T01:29:03;2.27;;;1.00;;
13475;SDS011;6810;63.824;20.288;2023-08-06T01:31:18;1.87;;;0.93;;
13475;SDS011;6810;63.824;20.288;2023-08-06T01:33:49;1.57;;;1.20;;
13475;SDS011;6810;63.824;20.288;2023-08-06T01:36:17;3.80;;;1.00;;
13475;SDS011;6810;63.824;20.288;2023-08-06T01:38:47;2.93;;;1.03;;
13475;SDS011;6810;63.824;20.288;2023-08-06T01:41:14;0.97;;;0.90;;
13475;SDS011;6810;63.824;20.288;2023-08-06T01:43:42;1.13;;;0.70;;
13475;SDS011;6810;63.824;20.288;2023-08-06T01:46:09;2.13;;;1.00;;
13475;SDS011;6810;63.824;20.288;2023-08-06T01:48:37;1.10;;;1.00;;
13475;SDS011;6810;63.824;20.288;2023-08-06T01:51:04;0.90;;;0.90;;
13475;SDS011;6810;63.824;20.288;2023-08-06T01:53:32;1.10;;;0.93;;
13475;SDS011;6810;63.824;20.288;2023-08-06T01:56:00;1.47;;;0.97;;
13475;SDS011;6810;63.824;20.288;2023-08-06T01:58:27;1.47;;;0.80;;
13475;SDS011;6810;63.824;20.288;2023-08-06T02:00:54;2.37;;;1.20;;
13475;SDS011;6810;63.824;20.288;2023-08-06T02:03:23;3.17;;;1.00;;
13475;SDS011;6810;63.824;20.288;2023-08-06T02:05:50;1.53;;;0.90;;
13475;SDS011;6810;63.824;20.288;2023-08-06T02:08:20;0.80;;;0.80;;
13475;SDS011;6810;63.824;20.288;2023-08-06T02:10:48;3.10;;;1.10;;
13475;SDS011;6810;63.824;20.288;2023-08-06T02:13:15;2.03;;;1.00;;
13475;SDS011;6810;63.824;20.288;2023-08-06T02:15:45;1.33;;;0.90;;
13475;SDS011;6810;63.824;20.288;2023-08-06T02:18:15;1.60;;;1.13;;
13475;SDS011;6810;63.824;20.288;2023-08-06T02:20:43;1.67;;;0.87;;
13475;SDS011;6810;63.824;20.288;2023-08-06T02:23:10;1.50;;;1.00;;
13475;SDS011;6810;63.824;20.288;2023-08-06T02:25:37;2.00;;;1.20;;
13475;SDS011;6810;63.824;20.288;2023-08-06T02:28:04;2.30;;;0.90;;
13475;SDS011;6810;63.824;20.288;2023-08-06T02:30:31;1.10;;;1.00;;
13475;SDS011;6810;63.824;20.288;2023-08-06T02:32:58;0.90;;;0.90;;
13475;SDS011;6810;63.824;20.288;2023-08-06T02:35:26;1.53;;;1.07;;
13475;SDS011;6810;63.824;20.288;2023-08-06T02:37:53;1.27;;;0.90;;
13475;SDS011;6810;63.824;20.288;2023-08-06T02:40:21;0.97;;;0.87;;
13475;SDS011;6810;63.824;20.288;2023-08-06T02:42:49;2.50;;;0.90;;
13475;SDS011;6810;63.824;20.288;2023-08-06T02:45:16;2.00;;;0.80;;
13475;SDS011;6810;63.824;20.288;2023-08-06T02:47:43;2.00;;;1.00;;
13475;SDS011;6810;63.824;20.288;2023-08-06T02:50:10;2.13;;;0.87;;
13475;SDS011;6810;63.824;20.288;2023-08-06T02:52:38;1.30;;;1.10;;
13475;SDS011;6810;63.824;20.288;2023-08-06T02:55:07;2.00;;;1.00;;
13475;SDS011;6810;63.824;20.288;2023-08-06T02:57:39;2.27;;;1.00;;
13475;SDS011;6810;63.824;20.288;2023-08-06T03:00:07;0.70;;;0.70;;
13475;SDS011;6810;63.824;20.288;2023-08-06T03:02:34;1.53;;;1.00;;
13475;SDS011;6810;63.824;20.288;2023-08-06T03:05:13;1.10;;;0.90;;
13475;SDS011;6810;63.824;20.288;2023-08-06T03:07:44;0.90;;;0.90;;
13475;SDS011;6810;63.824;20.288;2023-08-06T03:10:17;2.37;;;1.07;;
13475;SDS011;6810;63.824;20.288;2023-08-06T03:12:44;1.50;;;1.00;;
13475;SDS011;6810;63.824;20.288;2023-08-06T03:15:12;3.43;;;1.00;;
13475;SDS011;6810;63.824;20.288;2023-08-06T03:17:41;2.13;;;1.00;;
13475;SDS011;6810;63.824;20.288;2023-08-06T03:20:09;1.03;;;0.97;;
13475;SDS011;6810;63.824;20.288;2023-08-06T03:22:37;2.10;;;0.90;;
13475;SDS011;6810;63.824;20.288;2023-08-06T03:25:05;2.10;;;0.83;;
13475;SDS011;6810;63.824;20.288;2023-08-06T03:27:34;3.50;;;1.20;;
13475;SDS011;6810;63.824;20.288;2023-08-06T03:30:01;3.10;;;1.10;;
13475;SDS011;6810;63.824;20.288;2023-08-06T03:32:30;0.80;;;0.80;;
13475;SDS011;6810;63.824;20.288;2023-08-06T03:34:57;2.67;;;1.10;;
13475;SDS011;6810;63.824;20.288;2023-08-06T03:37:27;1.40;;;1.17;;
13475;SDS011;6810;63.824;20.288;2023-08-06T03:39:55;1.53;;;1.10;;
13475;SDS011;6810;63.824;20.288;2023-08-06T03:42:22;1.20;;;1.10;;
13475;SDS011;6810;63.824;20.288;2023-08-06T03:44:50;3.00;;;1.10;;
13475;SDS011;6810;63.824;20.288;2023-08-06T03:47:17;2.07;;;1.10;;
13475;SDS011;6810;63.824;20.288;2023-08-06T03:49:47;2.57;;;1.00;;
13475;SDS011;6810;63.824;20.288;2023-08-06T03:52:16;1.70;;;1.07;;
13475;SDS011;6810;63.824;20.288;2023-08-06T03:54:43;2.27;;;1.10;;
13475;SDS011;6810;63.824;20.288;2023-08-06T03:57:10;1.33;;;0.97;;
13475;SDS011;6810;63.824;20.288;2023-08-06T03:59:38;1.83;;;1.10;;
13475;SDS011;6810;63.824;20.288;2023-08-06T04:02:06;1.73;;;1.10;;
13475;SDS011;6810;63.824;20.288;2023-08-06T04:04:33;0.97;;;0.90;;
13475;SDS011;6810;63.824;20.288;2023-08-06T04:07:00;1.80;;;0.80;;
13475;SDS011;6810;63.824;20.288;2023-08-06T04:09:28;1.77;;;1.00;;
13475;SDS011;6810;63.824;20.288;2023-08-06T04:11:55;1.83;;;1.10;;
13475;SDS011;6810;63.824;20.288;2023-08-06T04:14:26;1.53;;;1.00;;
13475;SDS011;6810;63.824;20.288;2023-08-06T04:16:53;1.30;;;1.20;;
13475;SDS011;6810;63.824;20.288;2023-08-06T04:19:20;1.67;;;1.10;;
13475;SDS011;6810;63.824;20.288;2023-08-06T04:21:47;1.77;;;0.90;;
13475;SDS011;6810;63.824;20.288;2023-08-06T04:24:14;3.37;;;1.13;;
13475;SDS011;6810;63.824;20.288;2023-08-06T04:26:41;3.17;;;1.20;;
13475;SDS011;6810;63.824;20.288;2023-08-06T04:29:09;1.27;;;1.00;;
13475;SDS011;6810;63.824;20.288;2023-08-06T04:31:37;1.00;;;0.90;;
13475;SDS011;6810;63.824;20.288;2023-08-06T04:34:04;3.27;;;1.10;;
13475;SDS011;6810;63.824;20.288;2023-08-06T04:36:31;1.60;;;1.00;;
13475;SDS011;6810;63.824;20.288;2023-08-06T04:38:59;0.90;;;0.90;;
13475;SDS011;6810;63.824;20.288;2023-08-06T04:41:26;1.87;;;1.00;;
13475;SDS011;6810;63.824;20.288;2023-08-06T04:43:53;3.13;;;0.90;;
13475;SDS011;6810;63.824;20.288;2023-08-06T04:46:21;3.73;;;1.20;;
13475;SDS011;6810;63.824;20.288;2023-08-06T04:48:49;1.20;;;1.10;;
13475;SDS011;6810;63.824;20.288;2023-08-06T04:51:16;2.47;;;1.13;;
13475;SDS011;6810;63.824;20.288;2023-08-06T04:53:43;1.03;;;1.00;;
13475;SDS011;6810;63.824;20.288;2023-08-06T04:56:10;1.20;;;1.10;;
13475;SDS011;6810;63.824;20.288;2023-08-06T04:58:37;1.83;;;1.20;;
13475;SDS011;6810;63.824;20.288;2023-08-06T05:01:06;3.40;;;1.30;;
13475;SDS011;6810;63.824;20.288;2023-08-06T05:03:33;1.07;;;0.90;;
13475;SDS011;6810;63.824;20.288;2023-08-06T05:06:00;1.80;;;1.10;;
13475;SDS011;6810;63.824;20.288;2023-08-06T05:08:27;1.73;;;1.10;;
13475;SDS011;6810;63.824;20.288;2023-08-06T05:10:54;1.97;;;1.10;;
13475;SDS011;6810;63.824;20.288;2023-08-06T05:13:21;1.10;;;1.00;;
13475;SDS011;6810;63.824;20.288;2023-08-06T05:15:48;3.93;;;1.20;;
13475;SDS011;6810;63.824;20.288;2023-08-06T05:18:16;2.27;;;1.00;;
13475;SDS011;6810;63.824;20.288;2023-08-06T05:20:43;1.40;;;1.20;;
13475;SDS011;6810;63.824;20.288;2023-08-06T05:23:10;1.07;;;0.90;;
13475;SDS011;6810;63.824;20.288;2023-08-06T05:25:37;2.67;;;1.00;;
13475;SDS011;6810;63.824;20.288;2023-08-06T05:28:05;1.50;;;1.07;;
13475;SDS011;6810;63.824;20.288;2023-08-06T05:30:32;1.93;;;1.10;;
13475;SDS011;6810;63.824;20.288;2023-08-06T05:32:59;3.27;;;1.37;;
13475;SDS011;6810;63.824;20.288;2023-08-06T05:35:27;2.10;;;1.30;;
13475;SDS011;6810;63.824;20.288;2023-08-06T05:37:54;1.77;;;1.30;;
13475;SDS011;6810;63.824;20.288;2023-08-06T05:40:21;1.83;;;1.00;;
13475;SDS011;6810;63.824;20.288;2023-08-06T05:42:48;1.83;;;1.23;;
13475;SDS011;6810;63.824;20.288;2023-08-06T05:45:15;2.20;;;1.30;;
13475;SDS011;6810;63.824;20.288;2023-08-06T05:47:42;1.43;;;1.27;;
13475;SDS011;6810;63.824;20.288;2023-08-06T05:50:09;1.67;;;1.20;;
13475;SDS011;6810;63.824;20.288;2023-08-06T05:52:36;1.43;;;1.07;;
13475;SDS011;6810;63.824;20.288;2023-08-06T05:55:03;1.47;;;1.10;;
13475;SDS011;6810;63.824;20.288;2023-08-06T05:57:34;1.37;;;1.20;;
13475;SDS011;6810;63.824;20.288;2023-08-06T06:00:02;1.03;;;1.00;;
13475;SDS011;6810;63.824;20.288;2023-08-06T06:02:38;2.00;;;1.43;;
13475;SDS011;6810;63.824;20.288;2023-08-06T06:05:05;1.50;;;1.40;;
13475;SDS011;6810;63.824;20.288;2023-08-06T06:07:32;3.37;;;1.40;;
13475;SDS011;6810;63.824;20.288;2023-08-06T06:09:59;2.23;;;1.13;;
13475;SDS011;6810;63.824;20.288;2023-08-06T06:12:26;2.40;;;1.40;;
13475;SDS011;6810;63.824;20.288;2023-08-06T06:14:53;1.47;;;1.30;;
13475;SDS011;6810;63.824;20.288;2023-08-06T06:17:20;2.10;;;1.40;;
13475;SDS011;6810;63.824;20.288;2023-08-06T06:19:48;1.10;;;1.00;;
13475;SDS011;6810;63.824;20.288;2023-08-06T06:22:15;2.03;;;1.60;;
13475;SDS011;6810;63.824;20.288;2023-08-06T06:24:42;1.70;;;1.43;;
13475;SDS011;6810;63.824;20.288;2023-08-06T06:27:09;3.67;;;1.30;;
13475;SDS011;6810;63.824;20.288;2023-08-06T06:29:36;1.97;;;1.30;;
13475;SDS011;6810;63.824;20.288;2023-08-06T06:32:03;2.00;;;1.37;;
13475;SDS011;6810;63.824;20.288;2023-08-06T06:34:30;1.47;;;1.37;;
13475;SDS011;6810;63.824;20.288;2023-08-06T06:36:57;1.30;;;1.20;;
13475;SDS011;6810;63.824;20.288;2023-08-06T06:39:24;1.73;;;1.30;;
13475;SDS011;6810;63.824;20.288;2023-08-06T06:41:51;1.30;;;1.20;;
13475;SDS011;6810;63.824;20.288;2023-08-06T06:44:24;1.20;;;1.20;;
13475;SDS011;6810;63.824;20.288;2023-08-06T06:46:51;0.97;;;0.97;;
13475;SDS011;6810;63.824;20.288;2023-08-06T06:49:18;1.20;;;0.93;;
13475;SDS011;6810;63.824;20.288;2023-08-06T06:51:45;1.83;;;1.00;;
13475;SDS011;6810;63.824;20.288;2023-08-06T06:54:12;1.27;;;1.17;;
13475;SDS011;6810;63.824;20.288;2023-08-06T06:56:39;1.63;;;1.30;;
13475;SDS011;6810;63.824;20.288;2023-08-06T06:59:07;1.40;;;1.27;;
13475;SDS011;6810;63.824;20.288;2023-08-06T07:01:34;1.20;;;1.10;;
13475;SDS011;6810;63.824;20.288;2023-08-06T07:04:01;2.00;;;1.27;;
13475;SDS011;6810;63.824;20.288;2023-08-06T07:06:31;1.63;;;1.10;;
13475;SDS011;6810;63.824;20.288;2023-08-06T07:08:59;1.50;;;0.83;;
13475;SDS011;6810;63.824;20.288;2023-08-06T07:11:26;1.57;;;0.90;;
13475;SDS011;6810;63.824;20.288;2023-08-06T07:13:56;1.20;;;1.00;;
13475;SDS011;6810;63.824;20.288;2023-08-06T07:16:27;2.20;;;1.20;;
13475;SDS011;6810;63.824;20.288;2023-08-06T07:18:56;0.97;;;0.90;;
13475;SDS011;6810;63.824;20.288;2023-08-06T07:21:23;1.23;;;0.90;;
13475;SDS011;6810;63.824;20.288;2023-08-06T07:23:50;1.50;;;1.00;;
13475;SDS011;6810;63.824;20.288;2023-08-06T07:26:17;1.53;;;0.90;;
13475;SDS011;6810;63.824;20.288;2023-08-06T07:28:44;1.30;;;1.20;;
13475;SDS011;6810;63.824;20.288;2023-08-06T07:31:11;1.70;;;0.90;;
13475;SDS011;6810;63.824;20.288;2023-08-06T07:33:39;0.90;;;0.90;;
13475;SDS011;6810;63.824;20.288;2023-08-06T07:36:10;1.50;;;1.00;;
13475;SDS011;6810;63.824;20.288;2023-08-06T07:38:38;2.10;;;1.00;;
13475;SDS011;6810;63.824;20.288;2023-08-06T07:41:06;1.03;;;0.70;;
13475;SDS011;6810;63.824;20.288;2023-08-06T07:43:32;0.90;;;0.90;;
13475;SDS011;6810;63.824;20.288;2023-08-06T07:46:00;2.40;;;1.00;;
13475;SDS011;6810;63.824;20.288;2023-08-06T07:48:27;0.80;;;0.80;;
13475;SDS011;6810;63.824;20.288;2023-08-06T07:50:55;1.57;;;1.00;;
13475;SDS011;6810;63.824;20.288;2023-08-06T07:53:22;1.73;;;0.97;;
13475;SDS011;6810;63.824;20.288;2023-08-06T07:55:53;0.80;;;0.80;;
13475;SDS011;6810;63.824;20.288;2023-08-06T07:58:20;1.17;;;0.87;;
13475;SDS011;6810;63.824;20.288;2023-08-06T08:00:48;1.17;;;0.90;;
13475;SDS011;6810;63.824;20.288;2023-08-06T08:03:15;0.80;;;0.80;;
13475;SDS011;6810;63.824;20.288;2023-08-06T08:05:43;0.80;;;0.70;;
13475;SDS011;6810;63.824;20.288;2023-08-06T08:08:11;0.80;;;0.80;;
13475;SDS011;6810;63.824;20.288;2023-08-06T08:10:38;0.50;;;0.50;;
13475;SDS011;6810;63.824;20.288;2023-08-06T08:13:05;1.20;;;0.60;;
13475;SDS011;6810;63.824;20.288;2023-08-06T08:15:34;0.67;;;0.67;;
13475;SDS011;6810;63.824;20.288;2023-08-06T08:18:01;0.70;;;0.70;;
13475;SDS011;6810;63.824;20.288;2023-08-06T08:20:28;2.47;;;0.60;;
13475;SDS011;6810;63.824;20.288;2023-08-06T08:22:59;0.80;;;0.80;;
13475;SDS011;6810;63.824;20.288;2023-08-06T08:25:27;1.50;;;0.73;;
13475;SDS011;6810;63.824;20.288;2023-08-06T08:27:57;0.40;;;0.40;;
13475;SDS011;6810;63.824;20.288;2023-08-06T08:30:24;0.50;;;0.50;;
13475;SDS011;6810;63.824;20.288;2023-08-06T08:32:52;0.40;;;0.40;;
13475;SDS011;6810;63.824;20.288;2023-08-06T08:35:20;0.37;;;0.37;;
13475;SDS011;6810;63.824;20.288;2023-08-06T08:37:47;0.70;;;0.30;;
13475;SDS011;6810;63.824;20.288;2023-08-06T08:40:14;0.33;;;0.30;;
13475;SDS011;6810;63.824;20.288;2023-08-06T08:42:42;1.13;;;0.40;;
13475;SDS011;6810;63.824;20.288;2023-08-06T08:45:13;1.03;;;0.43;;
13475;SDS011;6810;63.824;20.288;2023-08-06T08:47:41;1.07;;;0.40;;
13475;SDS011;6810;63.824;20.288;2023-08-06T08:50:13;0.40;;;0.40;;
13475;SDS011;6810;63.824;20.288;2023-08-06T08:52:41;0.50;;;0.30;;
13475;SDS011;6810;63.824;20.288;2023-08-06T08:55:14;0.60;;;0.30;;
13475;SDS011;6810;63.824;20.288;2023-08-06T08:57:43;0.47;;;0.47;;
13475;SDS011;6810;63.824;20.288;2023-08-06T09:00:10;0.40;;;0.40;;
13475;SDS011;6810;63.824;20.288;2023-08-06T09:02:37;1.33;;;0.30;;
13475;SDS011;6810;63.824;20.288;2023-08-06T09:05:06;0.43;;;0.43;;
13475;SDS011;6810;63.824;20.288;2023-08-06T09:07:52;1.53;;;0.33;;
13475;SDS011;6810;63.824;20.288;2023-08-06T09:10:21;0.93;;;0.30;;
13475;SDS011;6810;63.824;20.288;2023-08-06T09:12:50;0.30;;;0.30;;
13475;SDS011;6810;63.824;20.288;2023-08-06T09:15:20;0.30;;;0.30;;
13475;SDS011;6810;63.824;20.288;2023-08-06T09:17:51;0.50;;;0.30;;
13475;SDS011;6810;63.824;20.288;2023-08-06T09:20:19;0.20;;;0.20;;
13475;SDS011;6810;63.824;20.288;2023-08-06T09:22:47;0.20;;;0.20;;
13475;SDS011;6810;63.824;20.288;2023-08-06T09:25:22;0.20;;;0.20;;
13475;SDS011;6810;63.824;20.288;2023-08-06T09:28:10;0.20;;;0.20;;
13475;SDS011;6810;63.824;20.288;2023-08-06T09:30:57;0.27;;;0.27;;
13475;SDS011;6810;63.824;20.288;2023-08-06T09:33:46;0.30;;;0.30;;
13475;SDS011;6810;63.824;20.288;2023-08-06T09:36:33;0.77;;;0.30;;
13475;SDS011;6810;63.824;20.288;2023-08-06T09:39:21;0.77;;;0.30;;
13475;SDS011;6810;63.824;20.288;2023-08-06T09:42:14;0.70;;;0.40;;
13475;SDS011;6810;63.824;20.288;2023-08-06T09:45:07;0.20;;;0.20;;
13475;SDS011;6810;63.824;20.288;2023-08-06T09:47:58;0.20;;;0.20;;
13475;SDS011;6810;63.824;20.288;2023-08-06T09:50:45;0.20;;;0.20;;
13475;SDS011;6810;63.824;20.288;2023-08-06T09:53:33;0.20;;;0.20;;
13475;SDS011;6810;63.824;20.288;2023-08-06T09:56:23;0.27;;;0.27;;
13475;SDS011;6810;63.824;20.288;2023-08-06T09:59:10;0.20;;;0.20;;
13475;SDS011;6810;63.824;20.288;2023-08-06T10:01:58;0.20;;;0.20;;
13475;SDS011;6810;63.824;20.288;2023-08-06T10:04:45;0.20;;;0.20;;
13475;SDS011;6810;63.824;20.288;2023-08-06T10:07:32;0.23;;;0.23;;
13475;SDS011;6810;63.824;20.288;2023-08-06T10:10:20;1.07;;;0.30;;
13475;SDS011;6810;63.824;20.288;2023-08-06T10:13:07;0.20;;;0.20;;
13475;SDS011;6810;63.824;20.288;2023-08-06T10:15:55;0.20;;;0.20;;
13475;SDS011;6810;63.824;20.288;2023-08-06T10:18:43;0.30;;;0.30;;
13475;SDS011;6810;63.824;20.288;2023-08-06T10:21:31;0.30;;;0.20;;
13475;SDS011;6810;63.824;20.288;2023-08-06T10:24:19;0.37;;;0.20;;
13475;SDS011;6810;63.824;20.288;2023-08-06T10:27:06;1.20;;;0.77;;
13475;SDS011;6810;63.824;20.288;2023-08-06T10:29:53;1.73;;;0.60;;
13475;SDS011;6810;63.824;20.288;2023-08-06T10:32:46;0.67;;;0.27;;
13475;SDS011;6810;63.824;20.288;2023-08-06T10:35:36;0.50;;;0.10;;
13475;SDS011;6810;63.824;20.288;2023-08-06T10:38:36;0.30;;;0.30;;
13475;SDS011;6810;63.824;20.288;2023-08-06T10:41:48;1.33;;;0.30;;
13475;SDS011;6810;63.824;20.288;2023-08-06T10:44:35;0.77;;;0.20;;
13475;SDS011;6810;63.824;20.288;2023-08-06T10:47:28;0.20;;;0.20;;
13475;SDS011;6810;63.824;20.288;2023-08-06T10:50:15;0.37;;;0.37;;
13475;SDS011;6810;63.824;20.288;2023-08-06T10:53:04;1.40;;;0.20;;
13475;SDS011;6810;63.824;20.288;2023-08-06T10:55:51;0.23;;;0.23;;
13475;SDS011;6810;63.824;20.288;2023-08-06T10:58:38;0.50;;;0.40;;
13475;SDS011;6810;63.824;20.288;2023-08-06T11:01:28;0.50;;;0.40;;
13475;SDS011;6810;63.824;20.288;2023-08-06T11:04:15;0.73;;;0.30;;
13475;SDS011;6810;63.824;20.288;2023-08-06T11:07:03;0.30;;;0.30;;
13475;SDS011;6810;63.824;20.288;2023-08-06T11:09:50;0.63;;;0.50;;
13475;SDS011;6810;63.824;20.288;2023-08-06T11:12:37;0.80;;;0.50;;
13475;SDS011;6810;63.824;20.288;2023-08-06T11:15:25;0.83;;;0.60;;
13475;SDS011;6810;63.824;20.288;2023-08-06T11:18:12;0.73;;;0.63;;
13475;SDS011;6810;63.824;20.288;2023-08-06T11:20:59;0.60;;;0.60;;
13475;SDS011;6810;63.824;20.288;2023-08-06T11:23:47;0.83;;;0.70;;
13475;SDS011;6810;63.824;20.288;2023-08-06T11:26:35;0.60;;;0.60;;
13475;SDS011;6810;63.824;20.288;2023-08-06T11:29:23;0.90;;;0.70;;
13475;SDS011;6810;63.824;20.288;2023-08-06T11:32:10;1.00;;;0.80;;
13475;SDS011;6810;63.824;20.288;2023-08-06T11:34:58;2.30;;;1.07;;
13475;SDS011;6810;63.824;20.288;2023-08-06T11:37:45;1.10;;;1.00;;
13475;SDS011;6810;63.824;20.288;2023-08-06T11:40:33;1.80;;;1.10;;
13475;SDS011;6810;63.824;20.288;2023-08-06T11:43:22;2.67;;;1.40;;
13475;SDS011;6810;63.824;20.288;2023-08-06T11:46:09;1.33;;;1.17;;
13475;SDS011;6810;63.824;20.288;2023-08-06T11:48:58;1.63;;;1.00;;
13475;SDS011;6810;63.824;20.288;2023-08-06T11:51:45;1.30;;;1.20;;
13475;SDS011;6810;63.824;20.288;2023-08-06T11:54:32;1.30;;;1.20;;
13475;SDS011;6810;63.824;20.288;2023-08-06T11:57:22;1.27;;;1.00;;
13475;SDS011;6810;63.824;20.288;2023-08-06T12:00:12;1.17;;;1.17;;
13475;SDS011;6810;63.824;20.288;2023-08-06T12:03:01;1.70;;;1.10;;
13475;SDS011;6810;63.824;20.288;2023-08-06T12:05:48;1.60;;;1.50;;
13475;SDS011;6810;63.824;20.288;2023-08-06T12:08:35;1.40;;;1.30;;
13475;SDS011;6810;63.824;20.288;2023-08-06T12:11:22;1.40;;;1.30;;
13475;SDS011;6810;63.824;20.288;2023-08-06T12:14:10;2.10;;;1.20;;
13475;SDS011;6810;63.824;20.288;2023-08-06T12:16:57;1.50;;;1.40;;
13475;SDS011;6810;63.824;20.288;2023-08-06T12:19:44;2.10;;;1.40;;
13475;SDS011;6810;63.824;20.288;2023-08-06T12:22:32;1.43;;;1.33;;
13475;SDS011;6810;63.824;20.288;2023-08-06T12:25:23;1.50;;;1.37;;
13475;SDS011;6810;63.824;20.288;2023-08-06T12:28:10;1.40;;;1.30;;
13475;SDS011;6810;63.824;20.288;2023-08-06T12:30:57;1.83;;;1.50;;
13475;SDS011;6810;63.824;20.288;2023-08-06T12:33:44;1.50;;;1.40;;
13475;SDS011;6810;63.824;20.288;2023-08-06T12:36:34;1.50;;;1.40;;
13475;SDS011;6810;63.824;20.288;2023-08-06T12:39:21;2.80;;;1.60;;
13475;SDS011;6810;63.824;20.288;2023-08-06T12:42:08;1.73;;;1.40;;
13475;SDS011;6810;63.824;20.288;2023-08-06T12:44:55;3.33;;;1.50;;
13475;SDS011;6810;63.824;20.288;2023-08-06T12:47:42;1.83;;;1.37;;
13475;SDS011;6810;63.824;20.288;2023-08-06T12:50:30;1.60;;;1.50;;
13475;SDS011;6810;63.824;20.288;2023-08-06T12:53:17;2.20;;;1.50;;
13475;SDS011;6810;63.824;20.288;2023-08-06T12:56:04;1.90;;;1.30;;
13475;SDS011;6810;63.824;20.288;2023-08-06T12:58:51;2.33;;;1.50;;
13475;SDS011;6810;63.824;20.288;2023-08-06T13:01:38;1.60;;;1.50;;
13475;SDS011;6810;63.824;20.288;2023-08-06T13:04:25;1.30;;;1.20;;
13475;SDS011;6810;63.824;20.288;2023-08-06T13:07:12;1.23;;;1.10;;
13475;SDS011;6810;63.824;20.288;2023-08-06T13:09:59;2.33;;;1.93;;
13475;SDS011;6810;63.824;20.288;2023-08-06T13:12:46;2.03;;;1.30;;
13475;SDS011;6810;63.824;20.288;2023-08-06T13:15:33;1.20;;;1.10;;
13475;SDS011;6810;63.824;20.288;2023-08-06T13:18:20;1.27;;;1.17;;
13475;SDS011;6810;63.824;20.288;2023-08-06T13:21:07;1.80;;;1.10;;
13475;SDS011;6810;63.824;20.288;2023-08-06T13:23:54;1.00;;;1.00;;
13475;SDS011;6810;63.824;20.288;2023-08-06T13:26:41;1.27;;;0.97;;
13475;SDS011;6810;63.824;20.288;2023-08-06T13:29:28;2.57;;;1.00;;
13475;SDS011;6810;63.824;20.288;2023-08-06T13:32:15;1.37;;;0.97;;
13475;SDS011;6810;63.824;20.288;2023-08-06T13:35:03;2.17;;;1.00;;
13475;SDS011;6810;63.824;20.288;2023-08-06T13:37:51;1.00;;;0.80;;
13475;SDS011;6810;63.824;20.288;2023-08-06T13:40:38;1.13;;;1.03;;
13475;SDS011;6810;63.824;20.288;2023-08-06T13:43:25;1.70;;;1.13;;
13475;SDS011;6810;63.824;20.288;2023-08-06T13:46:12;2.70;;;1.13;;
13475;SDS011;6810;63.824;20.288;2023-08-06T13:49:02;1.60;;;1.10;;
13475;SDS011;6810;63.824;20.288;2023-08-06T13:51:49;1.13;;;1.13;;
13475;SDS011;6810;63.824;20.288;2023-08-06T13:54:48;1.37;;;0.90;;
13475;SDS011;6810;63.824;20.288;2023-08-06T13:57:35;0.80;;;0.80;;
13475;SDS011;6810;63.824;20.288;2023-08-06T14:00:22;1.03;;;0.97;;
13475;SDS011;6810;63.824;20.288;2023-08-06T14:03:09;1.70;;;1.30;;
13475;SDS011;6810;63.824;20.288;2023-08-06T14:05:56;1.13;;;1.13;;
13475;SDS011;6810;63.824;20.288;2023-08-06T14:08:43;0.90;;;0.70;;
13475;SDS011;6810;63.824;20.288;2023-08-06T14:11:30;0.93;;;0.93;;
13475;SDS011;6810;63.824;20.288;2023-08-06T14:14:17;2.10;;;1.03;;
13475;SDS011;6810;63.824;20.288;2023-08-06T14:17:04;0.90;;;0.90;;
13475;SDS011;6810;63.824;20.288;2023-08-06T14:19:51;1.30;;;0.80;;
13475;SDS011;6810;63.824;20.288;2023-08-06T14:22:38;1.10;;;1.00;;
13475;SDS011;6810;63.824;20.288;2023-08-06T14:25:25;0.90;;;0.90;;
13475;SDS011;6810;63.824;20.288;2023-08-06T14:28:12;1.00;;;0.77;;
13475;SDS011;6810;63.824;20.288;2023-08-06T14:30:59;0.87;;;0.87;;
13475;SDS011;6810;63.824;20.288;2023-08-06T14:33:46;0.80;;;0.77;;
13475;SDS011;6810;63.824;20.288;2023-08-06T14:36:33;0.60;;;0.60;;
13475;SDS011;6810;63.824;20.288;2023-08-06T14:39:22;0.77;;;0.77;;
13475;SDS011;6810;63.824;20.288;2023-08-06T14:42:09;0.73;;;0.73;;
13475;SDS011;6810;63.824;20.288;2023-08-06T14:44:56;0.40;;;0.40;;
13475;SDS011;6810;63.824;20.288;2023-08-06T14:47:43;0.80;;;0.33;;
13475;SDS011;6810;63.824;20.288;2023-08-06T14:50:30;0.40;;;0.40;;
13475;SDS011;6810;63.824;20.288;2023-08-06T14:53:17;0.67;;;0.30;;
13475;SDS011;6810;63.824;20.288;2023-08-06T14:56:04;0.30;;;0.30;;
13475;SDS011;6810;63.824;20.288;2023-08-06T14:58:50;0.20;;;0.20;;
13475;SDS011;6810;63.824;20.288;2023-08-06T15:01:38;1.53;;;0.30;;
13475;SDS011;6810;63.824;20.288;2023-08-06T15:04:25;1.13;;;0.30;;
13475;SDS011;6810;63.824;20.288;2023-08-06T15:07:12;0.70;;;0.30;;
13475;SDS011;6810;63.824;20.288;2023-08-06T15:09:59;0.20;;;0.20;;
13475;SDS011;6810;63.824;20.288;2023-08-06T15:12:53;0.43;;;0.30;;
13475;SDS011;6810;63.824;20.288;2023-08-06T15:15:43;1.07;;;0.30;;
13475;SDS011;6810;63.824;20.288;2023-08-06T15:18:30;0.47;;;0.37;;
13475;SDS011;6810;63.824;20.288;2023-08-06T15:21:17;1.60;;;1.33;;
13475;SDS011;6810;63.824;20.288;2023-08-06T15:24:04;0.50;;;0.50;;
13475;SDS011;6810;63.824;20.288;2023-08-06T15:26:51;0.40;;;0.30;;
13475;SDS011;6810;63.824;20.288;2023-08-06T15:29:38;0.20;;;0.20;;
13475;SDS011;6810;63.824;20.288;2023-08-06T15:32:25;0.50;;;0.30;;
13475;SDS011;6810;63.824;20.288;2023-08-06T15:35:12;0.87;;;0.27;;
13475;SDS011;6810;63.824;20.288;2023-08-06T15:38:00;0.43;;;0.43;;
13475;SDS011;6810;63.824;20.288;2023-08-06T15:40:47;0.20;;;0.20;;
13475;SDS011;6810;63.824;20.288;2023-08-06T15:43:34;0.30;;;0.30;;
13475;SDS011;6810;63.824;20.288;2023-08-06T15:46:21;0.97;;;0.30;;
13475;SDS011;6810;63.824;20.288;2023-08-06T15:49:08;0.20;;;0.20;;
13475;SDS011;6810;63.824;20.288;2023-08-06T15:51:55;0.20;;;0.20;;